createdAt,value
2022-09-29T00:00:30.021Z,11.02
2022-09-29T00:05:36.274Z,10.27
2022-09-29T00:10:42.361Z,8.57
2022-09-29T00:15:48.484Z,9.44
2022-09-29T00:20:54.654Z,10.99
2022-09-29T00:26:01.253Z,9.60
2022-09-29T00:31:07.381Z,9.96
2022-09-29T00:36:13.577Z,10.63
2022-09-29T00:42:26.500Z,9.11
2022-09-29T00:47:33.108Z,11.25
2022-09-29T00:52:39.577Z,11.10
2022-09-29T00:57:46.183Z,9.37
2022-09-29T01:02:52.296Z,8.23
2022-09-29T01:07:58.904Z,8.27
2022-09-29T01:13:05.202Z,9.13
2022-09-29T01:18:11.470Z,8.23
2022-09-29T01:23:17.666Z,8.38
2022-09-29T01:28:23.964Z,9.03
2022-09-29T01:33:30.071Z,8.42
2022-09-29T01:38:36.445Z,8.14
2022-09-29T01:43:42.517Z,7.72
2022-09-29T01:48:48.770Z,8.36
2022-09-29T01:53:54.946Z,9.53
2022-09-29T01:59:01.174Z,7.54
2022-09-29T02:04:07.616Z,8.61
2022-09-29T02:09:14.148Z,6.72
2022-09-29T02:14:21.220Z,7.19
2022-09-29T02:19:27.692Z,6.76
2022-09-29T02:24:33.816Z,7.66
2022-09-29T02:29:40.066Z,7.74
2022-09-29T02:34:46.345Z,7.98
2022-09-29T02:39:53.294Z,8.15
2022-09-29T02:45:00.274Z,7.81
2022-09-29T02:50:06.580Z,8.63
2022-09-29T02:55:13.006Z,6.95
2022-09-29T03:00:19.581Z,7.14
2022-09-29T03:05:25.650Z,7.17
2022-09-29T03:10:32.135Z,7.08
2022-09-29T03:15:41.369Z,7.90
2022-09-29T03:20:47.609Z,8.24
2022-09-29T03:25:53.775Z,7.68
2022-09-29T03:30:59.957Z,7.81
2022-09-29T03:36:06.002Z,7.37
2022-09-29T03:41:12.269Z,8.08
2022-09-29T03:46:18.387Z,7.15
2022-09-29T03:51:24.563Z,9.33
2022-09-29T03:56:30.660Z,7.70
2022-09-29T04:01:39.568Z,9.18
2022-09-29T04:06:45.676Z,8.66
2022-09-29T04:11:51.790Z,8.60
2022-09-29T04:16:58.225Z,8.30
2022-09-29T04:22:04.455Z,8.29
2022-09-29T04:27:10.999Z,7.96
2022-09-29T04:32:17.346Z,7.85
2022-09-29T04:37:23.478Z,9.02
2022-09-29T04:42:29.737Z,8.28
2022-09-29T04:47:35.936Z,8.61
2022-09-29T04:52:42.157Z,8.40
2022-09-29T04:57:48.745Z,8.90
2022-09-29T05:02:55.076Z,9.68
2022-09-29T05:08:01.183Z,9.17
2022-09-29T05:13:07.800Z,9.23
2022-09-29T05:18:14.040Z,9.11
2022-09-29T05:23:20.381Z,12.23
2022-09-29T05:28:26.571Z,9.18
2022-09-29T05:33:32.920Z,8.64
2022-09-29T05:38:39.111Z,8.77
2022-09-29T05:43:45.505Z,7.66
2022-09-29T05:48:52.525Z,8.56
2022-09-29T05:53:58.839Z,8.51
2022-09-29T05:59:04.965Z,8.66
2022-09-29T06:04:11.297Z,8.47
2022-09-29T06:09:17.414Z,8.60
2022-09-29T06:14:23.612Z,9.12
2022-09-29T06:19:29.731Z,9.23
2022-09-29T06:24:36.001Z,9.36
2022-09-29T06:29:42.493Z,9.46
2022-09-29T06:34:48.762Z,9.45
2022-09-29T06:39:54.931Z,10.21
2022-09-29T06:45:51.096Z,10.59
2022-09-29T06:51:07.406Z,9.33
2022-09-29T06:56:01.393Z,10.14
2022-09-29T07:01:07.513Z,11.07
2022-09-29T07:06:20.308Z,11.35
2022-09-29T07:11:19.346Z,12.42
2022-09-29T07:16:25.611Z,13.49
2022-09-29T07:21:31.628Z,13.07
2022-09-29T07:26:37.809Z,15.43
2022-09-29T07:31:49.781Z,13.85
2022-09-29T07:36:49.829Z,13.40
2022-09-29T07:41:56.302Z,15.60
2022-09-29T07:47:03.252Z,15.83
2022-09-29T07:52:09.465Z,15.40
2022-09-29T07:57:15.697Z,16.97
2022-09-29T08:02:21.864Z,17.04
2022-09-29T08:07:28.026Z,17.04
2022-09-29T08:12:42.423Z,17.03
2022-09-29T08:17:39.962Z,20.65
2022-09-29T08:22:46.114Z,21.07
2022-09-29T08:27:55.442Z,21.02
2022-09-29T08:32:58.058Z,20.07
2022-09-29T08:38:05.539Z,22.10
2022-09-29T08:43:11.722Z,23.58
2022-09-29T08:48:22.760Z,24.13
2022-09-29T08:53:27.939Z,22.53
2022-09-29T08:58:30.517Z,21.93
2022-09-29T09:03:36.595Z,23.85
2022-09-29T09:08:42.951Z,21.65
2022-09-29T09:13:49.083Z,20.97
2022-09-29T09:18:55.284Z,19.12
2022-09-29T09:24:01.638Z,20.53
2022-09-29T09:30:11.797Z,22.80
2022-09-29T09:35:23.382Z,22.37
2022-09-29T09:40:23.730Z,19.58
2022-09-29T09:45:30.122Z,20.50
2022-09-29T09:50:36.360Z,23.72
2022-09-29T09:55:42.474Z,19.65
2022-09-29T10:00:50.042Z,19.31
2022-09-29T10:05:56.151Z,18.48
2022-09-29T10:11:05.340Z,16.42
2022-09-29T10:16:11.620Z,15.85
2022-09-29T10:21:18.846Z,16.26
2022-09-29T10:26:25.047Z,15.12
2022-09-29T10:31:31.335Z,14.88
2022-09-29T10:36:37.434Z,14.99
2022-09-29T10:41:43.704Z,15.84
2022-09-29T10:46:50.350Z,11.63
2022-09-29T10:51:56.546Z,14.11
2022-09-29T10:57:02.870Z,12.08
2022-09-29T11:02:09.171Z,12.50
2022-09-29T11:07:15.263Z,11.03
2022-09-29T11:12:21.481Z,10.35
2022-09-29T11:17:27.909Z,10.27
2022-09-29T11:22:34.229Z,10.61
2022-09-29T11:27:40.303Z,10.16
2022-09-29T11:32:46.638Z,9.88
2022-09-29T11:37:53.560Z,10.43
2022-09-29T11:42:59.966Z,9.10
2022-09-29T11:48:06.084Z,8.87
2022-09-29T11:53:12.411Z,9.03
2022-09-29T11:58:18.477Z,7.72
2022-09-29T12:03:24.889Z,8.90
2022-09-29T12:08:30.996Z,9.45
2022-09-29T12:13:42.526Z,7.15
2022-09-29T12:18:41.664Z,7.08
2022-09-29T12:23:48.015Z,7.17
2022-09-29T12:28:54.309Z,7.26
2022-09-29T12:34:00.461Z,5.86
2022-09-29T12:39:10.159Z,5.72
2022-09-29T12:44:12.697Z,4.64
2022-09-29T12:49:18.795Z,5.30
2022-09-29T12:54:24.985Z,4.82
2022-09-29T12:59:31.065Z,3.93
2022-09-29T13:04:37.354Z,4.30
2022-09-29T13:09:43.544Z,4.23
2022-09-29T13:14:49.783Z,3.16
2022-09-29T13:19:57.222Z,4.51
2022-09-29T13:25:01.742Z,3.42
2022-09-29T13:30:07.871Z,4.28
2022-09-29T13:35:14.424Z,2.73
2022-09-29T13:40:20.602Z,3.86
2022-09-29T13:45:31.294Z,3.28
2022-09-29T13:50:32.569Z,4.55
2022-09-29T13:55:38.755Z,3.68
2022-09-29T14:00:44.937Z,2.86
2022-09-29T14:05:51.304Z,3.15
2022-09-29T14:10:57.356Z,2.95
2022-09-29T14:16:04.535Z,3.42
2022-09-29T14:21:10.684Z,2.91
2022-09-29T14:26:17.485Z,3.45
2022-09-29T14:31:23.613Z,2.50
2022-09-29T14:36:29.845Z,2.36
2022-09-29T14:41:35.912Z,1.66
2022-09-29T14:46:42.259Z,2.59
2022-09-29T14:51:48.537Z,2.03
2022-09-29T14:56:54.960Z,1.79
2022-09-29T15:02:01.923Z,1.95
2022-09-29T15:07:08.295Z,2.01
2022-09-29T15:12:14.445Z,3.04
2022-09-29T15:17:20.645Z,2.56
2022-09-29T15:22:26.732Z,2.94
2022-09-29T15:27:33.037Z,2.47
2022-09-29T15:32:39.997Z,2.43
2022-09-29T15:37:46.640Z,2.62
2022-09-29T15:42:52.898Z,3.35
2022-09-29T15:47:59.058Z,2.17
2022-09-29T15:53:05.592Z,2.62
2022-09-29T15:58:11.777Z,2.79
2022-09-29T16:03:18.027Z,2.63
2022-09-29T16:08:24.270Z,2.89
2022-09-29T16:13:31.263Z,2.08
2022-09-29T16:18:37.560Z,3.75
2022-09-29T16:23:43.636Z,2.11
2022-09-29T16:28:49.876Z,2.56
2022-09-29T16:33:56.276Z,2.52
2022-09-29T16:39:02.693Z,1.86
2022-09-29T16:44:08.798Z,1.79
2022-09-29T16:45:23.360Z,3.04
2022-09-29T16:50:29.580Z,3.52
2022-09-29T16:55:36.656Z,2.55
2022-09-29T17:00:42.970Z,2.47
2022-09-29T17:05:49.183Z,2.72
2022-09-29T17:10:55.996Z,2.86
2022-09-29T17:16:02.306Z,3.55
2022-09-29T17:21:08.715Z,3.95
2022-09-29T17:26:18.370Z,4.23
2022-09-29T17:31:24.640Z,3.11
2022-09-29T17:36:30.810Z,4.05
2022-09-29T17:41:37.357Z,5.27
2022-09-29T17:46:43.483Z,4.06
2022-09-29T17:51:49.706Z,3.15
2022-09-29T17:56:59.003Z,3.77
2022-09-29T18:02:01.839Z,3.56
2022-09-29T18:07:07.899Z,3.78
2022-09-29T18:12:14.912Z,3.89
2022-09-29T18:17:21.107Z,3.80
2022-09-29T18:22:27.753Z,6.63
2022-09-29T18:27:33.851Z,9.96
2022-09-29T18:32:40.107Z,8.08
2022-09-29T18:37:46.323Z,7.54
2022-09-29T18:42:52.862Z,6.19
2022-09-29T18:47:59.162Z,5.65
2022-09-29T18:53:05.704Z,6.62
2022-09-29T18:58:11.961Z,8.16
2022-09-29T19:03:18.214Z,8.53
2022-09-29T19:08:24.517Z,9.97
2022-09-29T19:13:30.817Z,7.92
2022-09-29T19:18:36.926Z,5.90
2022-09-29T19:23:43.248Z,6.26
2022-09-29T19:28:49.987Z,7.55
2022-09-29T19:33:56.396Z,7.06
2022-09-29T19:39:02.845Z,6.54
2022-09-29T19:44:09.249Z,6.58
2022-09-29T19:49:19.376Z,7.81
2022-09-29T19:54:15.826Z,5.81
2022-09-29T19:59:22.325Z,9.04
2022-09-29T20:04:29.945Z,7.65
2022-09-29T20:09:34.268Z,8.08
2022-09-29T20:14:40.431Z,7.35
2022-09-29T20:19:47.004Z,9.77
2022-09-29T20:24:53.307Z,8.41
2022-09-29T20:30:01.047Z,8.98
2022-09-29T20:35:07.508Z,9.57
2022-09-29T20:41:09.883Z,9.00
2022-09-29T20:46:16.408Z,9.42
2022-09-29T20:51:22.752Z,8.45
2022-09-29T20:56:29.206Z,7.06
2022-09-29T21:01:36.057Z,7.16
2022-09-29T21:06:42.474Z,7.03
2022-09-29T21:11:49.172Z,7.19
2022-09-29T21:16:55.536Z,7.31
2022-09-29T21:22:01.641Z,7.17
2022-09-29T21:27:08.935Z,6.80
2022-09-29T21:32:15.150Z,7.18
2022-09-29T21:37:21.461Z,7.46
2022-09-29T21:42:27.573Z,7.30
2022-09-29T21:47:33.741Z,6.66
2022-09-29T21:52:40.189Z,6.31
2022-09-29T21:57:47.011Z,6.58
2022-09-29T22:02:53.170Z,7.61
2022-09-29T22:07:59.534Z,6.05
2022-09-29T22:13:05.983Z,6.37
2022-09-29T22:18:12.152Z,6.12
2022-09-29T22:23:18.758Z,6.24
2022-09-29T22:28:24.916Z,6.82
2022-09-29T22:33:34.352Z,7.64
2022-09-29T22:38:40.538Z,6.12
2022-09-29T22:43:47.433Z,5.90
2022-09-29T22:48:53.861Z,6.24
2022-09-29T22:54:00.013Z,6.78
2022-09-29T22:59:06.165Z,6.89
2022-09-29T23:04:13.420Z,6.86
2022-09-29T23:09:20.057Z,8.52
2022-09-29T23:14:26.026Z,7.65
2022-09-29T23:19:32.326Z,8.11
2022-09-29T23:24:38.423Z,7.59
2022-09-29T23:29:45.655Z,8.04
2022-09-29T23:34:52.167Z,8.19
2022-09-29T23:40:01.773Z,8.03
2022-09-29T23:45:08.876Z,8.64
2022-09-29T23:50:15.085Z,8.07
2022-09-29T23:55:23.686Z,7.48
